sensor_id;sensor_type;location;lat;lon;timestamp;P1;durP1;ratioP1;P2;durP2;ratioP2
64682;SDS011;51107;47.652;19.016;2023-11-19T00:00:57;2.17;;;1.15;;
64682;SDS011;51107;47.652;19.016;2023-11-19T00:03:25;1.23;;;0.95;;
64682;SDS011;51107;47.652;19.016;2023-11-19T00:05:53;2.97;;;1.45;;
64682;SDS011;51107;47.652;19.016;2023-11-19T00:08:21;1.87;;;0.90;;
64682;SDS011;51107;47.652;19.016;2023-11-19T00:10:49;1.50;;;0.93;;
64682;SDS011;51107;47.652;19.016;2023-11-19T00:13:18;2.20;;;1.25;;
64682;SDS011;51107;47.652;19.016;2023-11-19T00:15:46;2.97;;;1.62;;
64682;SDS011;51107;47.652;19.016;2023-11-19T00:18:15;3.60;;;1.50;;
64682;SDS011;51107;47.652;19.016;2023-11-19T00:20:43;2.75;;;1.90;;
64682;SDS011;51107;47.652;19.016;2023-11-19T00:23:12;1.83;;;1.60;;
64682;SDS011;51107;47.652;19.016;2023-11-19T00:25:40;3.03;;;1.30;;
64682;SDS011;51107;47.652;19.016;2023-11-19T00:28:08;5.45;;;1.67;;
64682;SDS011;51107;47.652;19.016;2023-11-19T00:30:36;4.95;;;2.28;;
64682;SDS011;51107;47.652;19.016;2023-11-19T00:33:05;5.53;;;2.75;;
64682;SDS011;51107;47.652;19.016;2023-11-19T00:35:33;6.22;;;1.83;;
64682;SDS011;51107;47.652;19.016;2023-11-19T00:38:01;2.60;;;1.62;;
64682;SDS011;51107;47.652;19.016;2023-11-19T00:40:30;3.35;;;1.52;;
64682;SDS011;51107;47.652;19.016;2023-11-19T00:42:59;3.85;;;1.87;;
64682;SDS011;51107;47.652;19.016;2023-11-19T00:45:28;4.10;;;2.28;;
64682;SDS011;51107;47.652;19.016;2023-11-19T00:47:57;4.90;;;1.52;;
64682;SDS011;51107;47.652;19.016;2023-11-19T00:50:27;3.62;;;2.15;;
64682;SDS011;51107;47.652;19.016;2023-11-19T00:52:57;4.85;;;1.42;;
64682;SDS011;51107;47.652;19.016;2023-11-19T00:55:29;3.85;;;2.42;;
64682;SDS011;51107;47.652;19.016;2023-11-19T00:57:57;2.45;;;1.50;;
64682;SDS011;51107;47.652;19.016;2023-11-19T01:00:25;4.55;;;2.08;;
64682;SDS011;51107;47.652;19.016;2023-11-19T01:02:55;2.67;;;1.50;;
64682;SDS011;51107;47.652;19.016;2023-11-19T01:05:23;5.45;;;2.45;;
64682;SDS011;51107;47.652;19.016;2023-11-19T01:07:52;8.88;;;2.92;;
64682;SDS011;51107;47.652;19.016;2023-11-19T01:10:24;8.15;;;2.95;;
64682;SDS011;51107;47.652;19.016;2023-11-19T01:12:53;9.48;;;3.17;;
64682;SDS011;51107;47.652;19.016;2023-11-19T01:15:21;4.37;;;2.17;;
64682;SDS011;51107;47.652;19.016;2023-11-19T01:17:50;10.45;;;3.58;;
64682;SDS011;51107;47.652;19.016;2023-11-19T01:20:20;3.15;;;1.45;;
64682;SDS011;51107;47.652;19.016;2023-11-19T01:22:49;6.32;;;2.85;;
64682;SDS011;51107;47.652;19.016;2023-11-19T01:25:18;8.63;;;1.98;;
64682;SDS011;51107;47.652;19.016;2023-11-19T01:27:46;6.82;;;2.30;;
64682;SDS011;51107;47.652;19.016;2023-11-19T01:30:14;3.08;;;1.40;;
64682;SDS011;51107;47.652;19.016;2023-11-19T01:32:43;4.10;;;1.85;;
64682;SDS011;51107;47.652;19.016;2023-11-19T01:35:11;2.83;;;1.67;;
64682;SDS011;51107;47.652;19.016;2023-11-19T01:37:39;7.03;;;1.65;;
64682;SDS011;51107;47.652;19.016;2023-11-19T01:40:08;3.35;;;1.48;;
64682;SDS011;51107;47.652;19.016;2023-11-19T01:42:40;5.28;;;2.10;;
64682;SDS011;51107;47.652;19.016;2023-11-19T01:45:09;1.75;;;1.08;;
64682;SDS011;51107;47.652;19.016;2023-11-19T01:47:49;2.40;;;1.35;;
64682;SDS011;51107;47.652;19.016;2023-11-19T01:50:19;3.20;;;1.42;;
64682;SDS011;51107;47.652;19.016;2023-11-19T01:52:48;3.62;;;1.85;;
64682;SDS011;51107;47.652;19.016;2023-11-19T01:55:16;2.28;;;1.55;;
64682;SDS011;51107;47.652;19.016;2023-11-19T01:57:44;2.47;;;1.65;;
64682;SDS011;51107;47.652;19.016;2023-11-19T02:00:14;3.35;;;1.55;;
64682;SDS011;51107;47.652;19.016;2023-11-19T02:02:44;2.92;;;1.40;;
64682;SDS011;51107;47.652;19.016;2023-11-19T02:05:14;9.35;;;2.12;;
64682;SDS011;51107;47.652;19.016;2023-11-19T02:07:42;5.47;;;2.17;;
64682;SDS011;51107;47.652;19.016;2023-11-19T02:10:11;4.03;;;2.30;;
64682;SDS011;51107;47.652;19.016;2023-11-19T02:12:42;4.20;;;1.95;;
64682;SDS011;51107;47.652;19.016;2023-11-19T02:15:11;7.37;;;1.92;;
64682;SDS011;51107;47.652;19.016;2023-11-19T02:17:39;3.80;;;1.67;;
64682;SDS011;51107;47.652;19.016;2023-11-19T02:20:08;3.22;;;1.33;;
64682;SDS011;51107;47.652;19.016;2023-11-19T02:22:39;2.10;;;1.40;;
64682;SDS011;51107;47.652;19.016;2023-11-19T02:25:08;4.12;;;1.92;;
64682;SDS011;51107;47.652;19.016;2023-11-19T02:30:24;10.43;;;1.98;;
64682;SDS011;51107;47.652;19.016;2023-11-19T02:32:55;2.97;;;1.58;;
64682;SDS011;51107;47.652;19.016;2023-11-19T02:35:25;2.95;;;1.45;;
64682;SDS011;51107;47.652;19.016;2023-11-19T02:37:54;2.05;;;1.35;;
64682;SDS011;51107;47.652;19.016;2023-11-19T02:40:22;2.42;;;1.45;;
64682;SDS011;51107;47.652;19.016;2023-11-19T02:42:54;2.45;;;1.30;;
64682;SDS011;51107;47.652;19.016;2023-11-19T02:45:24;2.28;;;1.37;;
64682;SDS011;51107;47.652;19.016;2023-11-19T02:47:53;7.62;;;1.95;;
64682;SDS011;51107;47.652;19.016;2023-11-19T02:50:23;5.85;;;2.20;;
64682;SDS011;51107;47.652;19.016;2023-11-19T02:52:55;3.03;;;1.90;;
64682;SDS011;51107;47.652;19.016;2023-11-19T02:55:24;2.62;;;1.75;;
64682;SDS011;51107;47.652;19.016;2023-11-19T02:57:56;4.10;;;0.95;;
64682;SDS011;51107;47.652;19.016;2023-11-19T03:00:27;2.92;;;1.37;;
64682;SDS011;51107;47.652;19.016;2023-11-19T03:03:04;1.90;;;1.30;;
64682;SDS011;51107;47.652;19.016;2023-11-19T03:05:46;2.45;;;1.10;;
64682;SDS011;51107;47.652;19.016;2023-11-19T03:08:15;3.12;;;2.12;;
64682;SDS011;51107;47.652;19.016;2023-11-19T03:10:47;4.37;;;1.42;;
64682;SDS011;51107;47.652;19.016;2023-11-19T03:13:15;3.30;;;1.40;;
64682;SDS011;51107;47.652;19.016;2023-11-19T03:15:45;4.60;;;1.08;;
64682;SDS011;51107;47.652;19.016;2023-11-19T03:18:13;2.28;;;0.85;;
64682;SDS011;51107;47.652;19.016;2023-11-19T03:20:42;2.15;;;1.17;;
64682;SDS011;51107;47.652;19.016;2023-11-19T03:23:10;5.30;;;1.77;;
64682;SDS011;51107;47.652;19.016;2023-11-19T03:25:38;2.75;;;1.70;;
64682;SDS011;51107;47.652;19.016;2023-11-19T03:28:06;4.93;;;1.60;;
64682;SDS011;51107;47.652;19.016;2023-11-19T03:30:35;4.60;;;1.58;;
64682;SDS011;51107;47.652;19.016;2023-11-19T03:33:03;4.97;;;1.70;;
64682;SDS011;51107;47.652;19.016;2023-11-19T03:35:52;5.57;;;2.22;;
64682;SDS011;51107;47.652;19.016;2023-11-19T03:38:11;2.97;;;1.98;;
64682;SDS011;51107;47.652;19.016;2023-11-19T03:40:40;2.67;;;1.60;;
64682;SDS011;51107;47.652;19.016;2023-11-19T03:43:09;11.55;;;3.40;;
64682;SDS011;51107;47.652;19.016;2023-11-19T03:45:37;4.18;;;2.37;;
64682;SDS011;51107;47.652;19.016;2023-11-19T03:48:07;5.78;;;2.20;;
64682;SDS011;51107;47.652;19.016;2023-11-19T03:50:41;8.73;;;2.75;;
64682;SDS011;51107;47.652;19.016;2023-11-19T03:53:14;5.12;;;2.22;;
64682;SDS011;51107;47.652;19.016;2023-11-19T03:55:42;5.55;;;1.90;;
64682;SDS011;51107;47.652;19.016;2023-11-19T03:58:10;5.68;;;2.35;;
64682;SDS011;51107;47.652;19.016;2023-11-19T04:00:40;6.00;;;2.58;;
64682;SDS011;51107;47.652;19.016;2023-11-19T04:03:09;7.47;;;2.70;;
64682;SDS011;51107;47.652;19.016;2023-11-19T04:05:37;2.80;;;1.87;;
64682;SDS011;51107;47.652;19.016;2023-11-19T04:08:05;2.47;;;1.17;;
64682;SDS011;51107;47.652;19.016;2023-11-19T04:10:34;2.67;;;1.52;;
64682;SDS011;51107;47.652;19.016;2023-11-19T04:13:02;4.37;;;2.30;;
64682;SDS011;51107;47.652;19.016;2023-11-19T04:15:30;5.53;;;2.65;;
64682;SDS011;51107;47.652;19.016;2023-11-19T04:17:58;15.95;;;5.82;;
64682;SDS011;51107;47.652;19.016;2023-11-19T04:20:26;6.40;;;2.65;;
64682;SDS011;51107;47.652;19.016;2023-11-19T04:22:55;7.82;;;3.53;;
64682;SDS011;51107;47.652;19.016;2023-11-19T04:25:24;6.55;;;3.65;;
64682;SDS011;51107;47.652;19.016;2023-11-19T04:27:53;10.23;;;3.28;;
64682;SDS011;51107;47.652;19.016;2023-11-19T04:30:22;4.10;;;2.00;;
64682;SDS011;51107;47.652;19.016;2023-11-19T04:32:50;5.80;;;2.37;;
64682;SDS011;51107;47.652;19.016;2023-11-19T04:35:18;21.65;;;4.28;;
64682;SDS011;51107;47.652;19.016;2023-11-19T04:37:46;18.45;;;5.62;;
64682;SDS011;51107;47.652;19.016;2023-11-19T04:40:15;11.10;;;4.87;;
64682;SDS011;51107;47.652;19.016;2023-11-19T04:42:43;12.37;;;3.28;;
64682;SDS011;51107;47.652;19.016;2023-11-19T04:45:11;6.07;;;2.72;;
64682;SDS011;51107;47.652;19.016;2023-11-19T04:47:40;5.65;;;2.83;;
64682;SDS011;51107;47.652;19.016;2023-11-19T04:50:08;18.30;;;6.32;;
64682;SDS011;51107;47.652;19.016;2023-11-19T04:52:39;10.98;;;5.07;;
64682;SDS011;51107;47.652;19.016;2023-11-19T04:55:08;19.42;;;4.40;;
64682;SDS011;51107;47.652;19.016;2023-11-19T04:57:39;11.12;;;4.45;;
64682;SDS011;51107;47.652;19.016;2023-11-19T05:00:08;13.27;;;3.95;;
64682;SDS011;51107;47.652;19.016;2023-11-19T05:02:41;10.90;;;3.55;;
64682;SDS011;51107;47.652;19.016;2023-11-19T05:05:10;7.28;;;3.15;;
64682;SDS011;51107;47.652;19.016;2023-11-19T05:07:38;3.58;;;2.00;;
64682;SDS011;51107;47.652;19.016;2023-11-19T05:10:06;1.60;;;0.95;;
64682;SDS011;51107;47.652;19.016;2023-11-19T05:12:35;2.85;;;1.55;;
64682;SDS011;51107;47.652;19.016;2023-11-19T05:15:03;3.78;;;1.60;;
64682;SDS011;51107;47.652;19.016;2023-11-19T05:17:32;3.05;;;1.62;;
64682;SDS011;51107;47.652;19.016;2023-11-19T05:20:01;6.22;;;2.12;;
64682;SDS011;51107;47.652;19.016;2023-11-19T05:22:30;7.62;;;2.15;;
64682;SDS011;51107;47.652;19.016;2023-11-19T05:24:58;6.65;;;2.92;;
64682;SDS011;51107;47.652;19.016;2023-11-19T05:27:26;6.90;;;3.67;;
64682;SDS011;51107;47.652;19.016;2023-11-19T05:29:54;3.17;;;2.10;;
64682;SDS011;51107;47.652;19.016;2023-11-19T05:32:22;3.40;;;1.73;;
64682;SDS011;51107;47.652;19.016;2023-11-19T05:34:51;2.78;;;1.37;;
64682;SDS011;51107;47.652;19.016;2023-11-19T05:37:19;2.83;;;1.37;;
64682;SDS011;51107;47.652;19.016;2023-11-19T05:39:47;6.55;;;2.47;;
64682;SDS011;51107;47.652;19.016;2023-11-19T05:42:16;4.60;;;2.33;;
64682;SDS011;51107;47.652;19.016;2023-11-19T05:44:44;5.90;;;2.00;;
64682;SDS011;51107;47.652;19.016;2023-11-19T05:47:13;6.93;;;2.80;;
64682;SDS011;51107;47.652;19.016;2023-11-19T05:49:41;7.07;;;2.67;;
64682;SDS011;51107;47.652;19.016;2023-11-19T05:52:09;6.10;;;2.78;;
64682;SDS011;51107;47.652;19.016;2023-11-19T05:54:39;8.85;;;5.03;;
64682;SDS011;51107;47.652;19.016;2023-11-19T05:57:08;11.88;;;3.87;;
64682;SDS011;51107;47.652;19.016;2023-11-19T05:59:37;6.80;;;3.25;;
64682;SDS011;51107;47.652;19.016;2023-11-19T06:02:05;7.68;;;3.20;;
64682;SDS011;51107;47.652;19.016;2023-11-19T06:04:34;6.00;;;3.20;;
64682;SDS011;51107;47.652;19.016;2023-11-19T06:07:02;2.78;;;1.25;;
64682;SDS011;51107;47.652;19.016;2023-11-19T06:09:31;5.00;;;1.60;;
64682;SDS011;51107;47.652;19.016;2023-11-19T06:12:02;6.15;;;2.35;;
64682;SDS011;51107;47.652;19.016;2023-11-19T06:14:31;3.65;;;2.15;;
64682;SDS011;51107;47.652;19.016;2023-11-19T06:16:59;8.73;;;1.42;;
64682;SDS011;51107;47.652;19.016;2023-11-19T06:19:28;5.68;;;1.87;;
64682;SDS011;51107;47.652;19.016;2023-11-19T06:21:58;4.20;;;2.03;;
64682;SDS011;51107;47.652;19.016;2023-11-19T06:24:26;4.53;;;2.30;;
64682;SDS011;51107;47.652;19.016;2023-11-19T06:26:54;4.05;;;1.52;;
64682;SDS011;51107;47.652;19.016;2023-11-19T06:29:23;3.20;;;1.50;;
64682;SDS011;51107;47.652;19.016;2023-11-19T06:31:51;8.20;;;2.00;;
64682;SDS011;51107;47.652;19.016;2023-11-19T06:34:19;2.30;;;1.50;;
64682;SDS011;51107;47.652;19.016;2023-11-19T06:36:48;2.20;;;1.30;;
64682;SDS011;51107;47.652;19.016;2023-11-19T06:39:16;1.65;;;1.27;;
64682;SDS011;51107;47.652;19.016;2023-11-19T06:41:46;4.12;;;1.75;;
64682;SDS011;51107;47.652;19.016;2023-11-19T06:44:14;5.45;;;2.50;;
64682;SDS011;51107;47.652;19.016;2023-11-19T06:46:42;5.18;;;2.03;;
64682;SDS011;51107;47.652;19.016;2023-11-19T06:49:11;6.15;;;2.03;;
64682;SDS011;51107;47.652;19.016;2023-11-19T06:51:42;6.20;;;3.37;;
64682;SDS011;51107;47.652;19.016;2023-11-19T06:54:12;2.92;;;1.98;;
64682;SDS011;51107;47.652;19.016;2023-11-19T06:56:40;6.05;;;2.35;;
64682;SDS011;51107;47.652;19.016;2023-11-19T06:59:09;8.65;;;2.50;;
64682;SDS011;51107;47.652;19.016;2023-11-19T07:01:37;5.68;;;2.40;;
64682;SDS011;51107;47.652;19.016;2023-11-19T07:04:06;6.95;;;2.87;;
64682;SDS011;51107;47.652;19.016;2023-11-19T07:06:37;3.72;;;1.98;;
64682;SDS011;51107;47.652;19.016;2023-11-19T07:09:05;3.03;;;1.98;;
64682;SDS011;51107;47.652;19.016;2023-11-19T07:11:40;4.35;;;2.12;;
64682;SDS011;51107;47.652;19.016;2023-11-19T07:14:09;2.28;;;1.45;;
64682;SDS011;51107;47.652;19.016;2023-11-19T07:16:37;5.05;;;1.90;;
64682;SDS011;51107;47.652;19.016;2023-11-19T07:19:06;4.80;;;1.77;;
64682;SDS011;51107;47.652;19.016;2023-11-19T07:21:35;3.30;;;1.70;;
64682;SDS011;51107;47.652;19.016;2023-11-19T07:24:07;3.20;;;1.08;;
64682;SDS011;51107;47.652;19.016;2023-11-19T07:26:36;6.28;;;3.25;;
64682;SDS011;51107;47.652;19.016;2023-11-19T07:29:08;6.05;;;2.95;;
64682;SDS011;51107;47.652;19.016;2023-11-19T07:31:36;7.07;;;4.30;;
64682;SDS011;51107;47.652;19.016;2023-11-19T07:34:05;8.15;;;3.28;;
64682;SDS011;51107;47.652;19.016;2023-11-19T07:36:34;6.25;;;2.97;;
64682;SDS011;51107;47.652;19.016;2023-11-19T07:39:04;7.22;;;3.55;;
64682;SDS011;51107;47.652;19.016;2023-11-19T07:41:32;6.43;;;3.78;;
64682;SDS011;51107;47.652;19.016;2023-11-19T07:44:05;5.95;;;2.87;;
64682;SDS011;51107;47.652;19.016;2023-11-19T07:46:34;8.05;;;4.10;;
64682;SDS011;51107;47.652;19.016;2023-11-19T07:49:02;8.52;;;4.30;;
64682;SDS011;51107;47.652;19.016;2023-11-19T07:51:31;4.60;;;2.78;;
64682;SDS011;51107;47.652;19.016;2023-11-19T07:53:59;12.80;;;4.47;;
64682;SDS011;51107;47.652;19.016;2023-11-19T07:56:27;6.40;;;3.55;;
64682;SDS011;51107;47.652;19.016;2023-11-19T07:58:55;5.30;;;3.00;;
64682;SDS011;51107;47.652;19.016;2023-11-19T08:01:24;5.43;;;3.05;;
64682;SDS011;51107;47.652;19.016;2023-11-19T08:03:52;6.12;;;2.75;;
64682;SDS011;51107;47.652;19.016;2023-11-19T08:06:26;5.60;;;2.53;;
64682;SDS011;51107;47.652;19.016;2023-11-19T08:08:54;7.28;;;3.42;;
64682;SDS011;51107;47.652;19.016;2023-11-19T08:11:23;5.60;;;2.65;;
64682;SDS011;51107;47.652;19.016;2023-11-19T08:13:51;3.50;;;2.00;;
64682;SDS011;51107;47.652;19.016;2023-11-19T08:16:20;5.47;;;3.12;;
64682;SDS011;51107;47.652;19.016;2023-11-19T08:18:48;7.62;;;3.70;;
64682;SDS011;51107;47.652;19.016;2023-11-19T08:21:16;6.95;;;3.55;;
64682;SDS011;51107;47.652;19.016;2023-11-19T08:23:44;10.68;;;3.78;;
64682;SDS011;51107;47.652;19.016;2023-11-19T08:26:14;6.82;;;2.83;;
64682;SDS011;51107;47.652;19.016;2023-11-19T08:28:44;6.47;;;2.80;;
64682;SDS011;51107;47.652;19.016;2023-11-19T08:31:13;3.67;;;2.10;;
64682;SDS011;51107;47.652;19.016;2023-11-19T08:33:41;5.43;;;2.65;;
64682;SDS011;51107;47.652;19.016;2023-11-19T08:36:14;3.33;;;1.87;;
64682;SDS011;51107;47.652;19.016;2023-11-19T08:38:43;3.53;;;1.92;;
64682;SDS011;51107;47.652;19.016;2023-11-19T08:41:12;3.85;;;1.80;;
64682;SDS011;51107;47.652;19.016;2023-11-19T08:43:40;3.55;;;2.25;;
64682;SDS011;51107;47.652;19.016;2023-11-19T08:46:10;4.85;;;2.30;;
64682;SDS011;51107;47.652;19.016;2023-11-19T08:48:39;6.40;;;1.90;;
64682;SDS011;51107;47.652;19.016;2023-11-19T08:51:07;5.28;;;2.20;;
64682;SDS011;51107;47.652;19.016;2023-11-19T08:53:35;4.40;;;2.00;;
64682;SDS011;51107;47.652;19.016;2023-11-19T08:56:04;4.80;;;2.00;;
64682;SDS011;51107;47.652;19.016;2023-11-19T08:58:33;5.97;;;2.67;;
64682;SDS011;51107;47.652;19.016;2023-11-19T09:01:01;4.65;;;2.22;;
64682;SDS011;51107;47.652;19.016;2023-11-19T09:03:31;4.62;;;2.35;;
64682;SDS011;51107;47.652;19.016;2023-11-19T09:06:00;5.60;;;2.75;;
64682;SDS011;51107;47.652;19.016;2023-11-19T09:08:28;6.18;;;2.47;;
64682;SDS011;51107;47.652;19.016;2023-11-19T09:10:56;5.75;;;2.90;;
64682;SDS011;51107;47.652;19.016;2023-11-19T09:13:24;5.50;;;2.92;;
64682;SDS011;51107;47.652;19.016;2023-11-19T09:15:53;6.45;;;3.15;;
64682;SDS011;51107;47.652;19.016;2023-11-19T09:18:21;6.05;;;2.58;;
64682;SDS011;51107;47.652;19.016;2023-11-19T09:20:50;6.75;;;3.40;;
64682;SDS011;51107;47.652;19.016;2023-11-19T09:23:19;5.12;;;3.12;;
64682;SDS011;51107;47.652;19.016;2023-11-19T09:25:47;4.75;;;3.17;;
64682;SDS011;51107;47.652;19.016;2023-11-19T09:28:15;10.75;;;2.87;;
64682;SDS011;51107;47.652;19.016;2023-11-19T09:30:43;6.47;;;3.62;;
64682;SDS011;51107;47.652;19.016;2023-11-19T09:33:12;8.75;;;3.10;;
64682;SDS011;51107;47.652;19.016;2023-11-19T09:35:40;6.57;;;3.87;;
64682;SDS011;51107;47.652;19.016;2023-11-19T09:38:08;7.18;;;4.28;;
64682;SDS011;51107;47.652;19.016;2023-11-19T09:40:36;9.57;;;3.40;;
64682;SDS011;51107;47.652;19.016;2023-11-19T09:43:07;21.52;;;4.30;;
64682;SDS011;51107;47.652;19.016;2023-11-19T09:45:40;9.50;;;3.87;;
64682;SDS011;51107;47.652;19.016;2023-11-19T09:48:19;5.68;;;3.62;;
64682;SDS011;51107;47.652;19.016;2023-11-19T09:50:47;10.85;;;3.72;;
64682;SDS011;51107;47.652;19.016;2023-11-19T09:53:16;10.02;;;3.75;;
64682;SDS011;51107;47.652;19.016;2023-11-19T09:55:44;6.78;;;3.33;;
64682;SDS011;51107;47.652;19.016;2023-11-19T09:58:13;9.05;;;4.28;;
64682;SDS011;51107;47.652;19.016;2023-11-19T10:00:43;9.65;;;4.75;;
64682;SDS011;51107;47.652;19.016;2023-11-19T10:03:17;10.23;;;3.92;;
64682;SDS011;51107;47.652;19.016;2023-11-19T10:05:46;11.32;;;4.82;;
64682;SDS011;51107;47.652;19.016;2023-11-19T10:08:14;8.23;;;4.78;;
64682;SDS011;51107;47.652;19.016;2023-11-19T10:10:44;11.73;;;4.95;;
64682;SDS011;51107;47.652;19.016;2023-11-19T10:13:12;8.63;;;4.22;;
64682;SDS011;51107;47.652;19.016;2023-11-19T10:15:42;9.18;;;5.43;;
64682;SDS011;51107;47.652;19.016;2023-11-19T10:18:13;11.20;;;5.30;;
64682;SDS011;51107;47.652;19.016;2023-11-19T10:20:42;11.07;;;4.60;;
64682;SDS011;51107;47.652;19.016;2023-11-19T10:23:12;7.57;;;4.57;;
64682;SDS011;51107;47.652;19.016;2023-11-19T10:25:40;9.63;;;4.55;;
64682;SDS011;51107;47.652;19.016;2023-11-19T10:28:08;11.30;;;5.28;;
64682;SDS011;51107;47.652;19.016;2023-11-19T10:30:36;11.00;;;5.37;;
64682;SDS011;51107;47.652;19.016;2023-11-19T10:33:08;10.43;;;4.32;;
64682;SDS011;51107;47.652;19.016;2023-11-19T10:35:51;12.73;;;5.75;;
64682;SDS011;51107;47.652;19.016;2023-11-19T10:38:29;18.17;;;5.65;;
64682;SDS011;51107;47.652;19.016;2023-11-19T10:40:58;11.10;;;5.65;;
64682;SDS011;51107;47.652;19.016;2023-11-19T10:43:27;9.95;;;4.72;;
64682;SDS011;51107;47.652;19.016;2023-11-19T10:46:08;6.40;;;2.92;;
64682;SDS011;51107;47.652;19.016;2023-11-19T10:48:40;8.68;;;4.45;;
64682;SDS011;51107;47.652;19.016;2023-11-19T10:51:08;7.25;;;3.75;;
64682;SDS011;51107;47.652;19.016;2023-11-19T10:53:38;10.32;;;4.15;;
64682;SDS011;51107;47.652;19.016;2023-11-19T10:56:10;6.47;;;3.03;;
64682;SDS011;51107;47.652;19.016;2023-11-19T10:58:40;7.95;;;3.95;;
64682;SDS011;51107;47.652;19.016;2023-11-19T11:01:13;8.93;;;4.97;;
64682;SDS011;51107;47.652;19.016;2023-11-19T11:06:19;6.40;;;3.35;;
64682;SDS011;51107;47.652;19.016;2023-11-19T11:08:50;9.43;;;3.62;;
64682;SDS011;51107;47.652;19.016;2023-11-19T11:11:19;5.47;;;3.45;;
64682;SDS011;51107;47.652;19.016;2023-11-19T11:13:56;8.55;;;3.67;;
64682;SDS011;51107;47.652;19.016;2023-11-19T11:16:28;8.50;;;3.55;;
64682;SDS011;51107;47.652;19.016;2023-11-19T11:18:59;9.18;;;3.90;;
64682;SDS011;51107;47.652;19.016;2023-11-19T11:21:28;7.50;;;4.45;;
64682;SDS011;51107;47.652;19.016;2023-11-19T11:29:23;12.32;;;3.03;;
64682;SDS011;51107;47.652;19.016;2023-11-19T11:37:33;8.82;;;3.15;;
64682;SDS011;51107;47.652;19.016;2023-11-19T11:40:05;4.15;;;2.83;;
64682;SDS011;51107;47.652;19.016;2023-11-19T11:42:38;7.22;;;3.55;;
64682;SDS011;51107;47.652;19.016;2023-11-19T11:45:07;5.95;;;2.83;;
64682;SDS011;51107;47.652;19.016;2023-11-19T11:50:17;9.07;;;2.97;;
64682;SDS011;51107;47.652;19.016;2023-11-19T11:55:27;7.62;;;3.25;;
64682;SDS011;51107;47.652;19.016;2023-11-19T11:58:02;5.47;;;3.15;;
64682;SDS011;51107;47.652;19.016;2023-11-19T12:00:36;9.80;;;3.83;;
64682;SDS011;51107;47.652;19.016;2023-11-19T12:03:10;6.00;;;3.75;;
64682;SDS011;51107;47.652;19.016;2023-11-19T12:05:43;6.62;;;3.60;;
64682;SDS011;51107;47.652;19.016;2023-11-19T12:08:16;9.93;;;3.55;;
64682;SDS011;51107;47.652;19.016;2023-11-19T12:10:53;7.43;;;3.65;;
64682;SDS011;51107;47.652;19.016;2023-11-19T12:13:29;7.65;;;3.40;;
64682;SDS011;51107;47.652;19.016;2023-11-19T12:16:14;6.72;;;2.90;;
64682;SDS011;51107;47.652;19.016;2023-11-19T12:18:42;5.00;;;3.10;;
64682;SDS011;51107;47.652;19.016;2023-11-19T12:21:10;7.68;;;3.90;;
64682;SDS011;51107;47.652;19.016;2023-11-19T12:23:45;6.75;;;3.67;;
64682;SDS011;51107;47.652;19.016;2023-11-19T12:26:31;9.07;;;3.97;;
64682;SDS011;51107;47.652;19.016;2023-11-19T12:29:01;6.47;;;3.10;;
64682;SDS011;51107;47.652;19.016;2023-11-19T12:31:36;7.35;;;4.15;;
64682;SDS011;51107;47.652;19.016;2023-11-19T12:34:07;9.02;;;4.18;;
64682;SDS011;51107;47.652;19.016;2023-11-19T12:36:40;4.68;;;3.33;;
64682;SDS011;51107;47.652;19.016;2023-11-19T12:39:09;8.75;;;4.97;;
64682;SDS011;51107;47.652;19.016;2023-11-19T12:41:50;8.27;;;3.55;;
64682;SDS011;51107;47.652;19.016;2023-11-19T12:44:19;10.57;;;3.22;;
64682;SDS011;51107;47.652;19.016;2023-11-19T12:46:59;8.90;;;3.58;;
64682;SDS011;51107;47.652;19.016;2023-11-19T12:49:36;8.13;;;4.55;;
64682;SDS011;51107;47.652;19.016;2023-11-19T12:52:14;7.00;;;3.45;;
64682;SDS011;51107;47.652;19.016;2023-11-19T12:54:42;7.22;;;4.25;;
64682;SDS011;51107;47.652;19.016;2023-11-19T12:57:11;9.10;;;4.43;;
64682;SDS011;51107;47.652;19.016;2023-11-19T12:59:39;8.20;;;4.37;;
64682;SDS011;51107;47.652;19.016;2023-11-19T13:02:07;8.35;;;3.65;;
64682;SDS011;51107;47.652;19.016;2023-11-19T13:04:35;6.87;;;3.45;;
64682;SDS011;51107;47.652;19.016;2023-11-19T13:07:04;6.32;;;3.58;;
64682;SDS011;51107;47.652;19.016;2023-11-19T13:09:33;6.62;;;3.15;;
64682;SDS011;51107;47.652;19.016;2023-11-19T13:12:11;6.82;;;3.65;;
64682;SDS011;51107;47.652;19.016;2023-11-19T13:14:42;10.45;;;4.78;;
64682;SDS011;51107;47.652;19.016;2023-11-19T13:17:13;8.65;;;3.72;;
64682;SDS011;51107;47.652;19.016;2023-11-19T13:19:42;6.50;;;3.20;;
64682;SDS011;51107;47.652;19.016;2023-11-19T13:22:10;7.53;;;3.15;;
64682;SDS011;51107;47.652;19.016;2023-11-19T13:24:39;6.20;;;3.22;;
64682;SDS011;51107;47.652;19.016;2023-11-19T13:27:08;5.50;;;2.87;;
64682;SDS011;51107;47.652;19.016;2023-11-19T13:29:36;10.07;;;3.83;;
64682;SDS011;51107;47.652;19.016;2023-11-19T13:32:04;9.30;;;4.45;;
64682;SDS011;51107;47.652;19.016;2023-11-19T13:34:33;10.38;;;4.47;;
64682;SDS011;51107;47.652;19.016;2023-11-19T13:37:01;5.78;;;3.47;;
64682;SDS011;51107;47.652;19.016;2023-11-19T13:39:31;8.40;;;4.10;;
64682;SDS011;51107;47.652;19.016;2023-11-19T13:41:59;10.20;;;3.97;;
64682;SDS011;51107;47.652;19.016;2023-11-19T13:44:31;6.97;;;3.58;;
64682;SDS011;51107;47.652;19.016;2023-11-19T13:47:00;5.72;;;3.75;;
64682;SDS011;51107;47.652;19.016;2023-11-19T13:49:28;4.78;;;2.55;;
64682;SDS011;51107;47.652;19.016;2023-11-19T13:51:57;5.12;;;3.15;;
64682;SDS011;51107;47.652;19.016;2023-11-19T13:54:25;8.93;;;3.08;;
64682;SDS011;51107;47.652;19.016;2023-11-19T13:56:54;10.50;;;5.43;;
64682;SDS011;51107;47.652;19.016;2023-11-19T13:59:24;8.02;;;4.65;;
64682;SDS011;51107;47.652;19.016;2023-11-19T14:01:52;8.07;;;3.45;;
64682;SDS011;51107;47.652;19.016;2023-11-19T14:04:20;9.88;;;5.60;;
64682;SDS011;51107;47.652;19.016;2023-11-19T14:06:49;10.07;;;3.42;;
64682;SDS011;51107;47.652;19.016;2023-11-19T14:09:17;6.32;;;3.60;;
64682;SDS011;51107;47.652;19.016;2023-11-19T14:11:46;9.20;;;3.55;;
64682;SDS011;51107;47.652;19.016;2023-11-19T14:14:14;5.03;;;2.85;;
64682;SDS011;51107;47.652;19.016;2023-11-19T14:16:43;5.57;;;3.17;;
64682;SDS011;51107;47.652;19.016;2023-11-19T14:19:12;6.40;;;3.67;;
64682;SDS011;51107;47.652;19.016;2023-11-19T14:21:41;5.62;;;3.10;;
64682;SDS011;51107;47.652;19.016;2023-11-19T14:24:09;9.75;;;4.05;;
64682;SDS011;51107;47.652;19.016;2023-11-19T14:26:38;9.20;;;3.22;;
64682;SDS011;51107;47.652;19.016;2023-11-19T14:29:06;8.27;;;3.78;;
64682;SDS011;51107;47.652;19.016;2023-11-19T14:31:34;6.00;;;3.37;;
64682;SDS011;51107;47.652;19.016;2023-11-19T14:34:03;5.82;;;2.72;;
64682;SDS011;51107;47.652;19.016;2023-11-19T14:36:31;6.03;;;2.75;;
64682;SDS011;51107;47.652;19.016;2023-11-19T14:39:00;4.37;;;2.87;;
64682;SDS011;51107;47.652;19.016;2023-11-19T14:41:29;11.40;;;5.20;;
64682;SDS011;51107;47.652;19.016;2023-11-19T14:43:57;6.82;;;3.42;;
64682;SDS011;51107;47.652;19.016;2023-11-19T14:46:25;6.50;;;3.00;;
64682;SDS011;51107;47.652;19.016;2023-11-19T14:48:54;8.50;;;3.87;;
64682;SDS011;51107;47.652;19.016;2023-11-19T14:51:22;10.45;;;4.22;;
64682;SDS011;51107;47.652;19.016;2023-11-19T14:53:50;13.00;;;5.80;;
64682;SDS011;51107;47.652;19.016;2023-11-19T14:56:19;11.07;;;5.72;;
64682;SDS011;51107;47.652;19.016;2023-11-19T14:58:47;11.15;;;5.55;;
64682;SDS011;51107;47.652;19.016;2023-11-19T15:01:18;12.63;;;5.60;;
64682;SDS011;51107;47.652;19.016;2023-11-19T15:03:47;11.38;;;5.22;;
64682;SDS011;51107;47.652;19.016;2023-11-19T15:06:22;10.68;;;5.03;;
64682;SDS011;51107;47.652;19.016;2023-11-19T15:08:51;10.82;;;4.62;;